createdAt,value
2022-09-24T00:01:25.723Z,3.28
2022-09-24T00:04:09.902Z,3.15
2022-09-24T00:06:52.809Z,3.45
2022-09-24T00:09:35.533Z,3.40
2022-09-24T00:12:18.902Z,3.65
2022-09-24T00:15:01.738Z,3.50
2022-09-24T00:17:47.304Z,3.63
2022-09-24T00:20:31.115Z,3.35
2022-09-24T00:23:13.797Z,3.95
2022-09-24T00:26:14.097Z,3.70
2022-09-24T00:28:56.801Z,3.83
2022-09-24T00:31:39.563Z,3.38
2022-09-24T00:34:24.408Z,3.67
2022-09-24T00:37:07.386Z,3.95
2022-09-24T00:39:50.101Z,4.15
2022-09-24T00:42:33.122Z,4.07
2022-09-24T00:45:15.742Z,3.60
2022-09-24T00:47:59.636Z,4.18
2022-09-24T00:50:43.655Z,3.63
2022-09-24T00:53:29.212Z,3.65
2022-09-24T00:56:15.521Z,3.50
2022-09-24T00:58:58.373Z,3.55
2022-09-24T01:01:41.125Z,3.85
2022-09-24T01:04:24.016Z,3.53
2022-09-24T01:07:08.108Z,3.50
2022-09-24T01:09:50.781Z,3.47
2022-09-24T01:12:37.825Z,4.00
2022-09-24T01:15:24.368Z,3.53
2022-09-24T01:18:10.620Z,3.35
2022-09-24T01:21:10.961Z,3.75
2022-09-24T01:24:11.106Z,3.60
2022-09-24T01:26:58.842Z,3.63
2022-09-24T01:29:52.387Z,3.80
2022-09-24T01:32:37.376Z,3.92
2022-09-24T01:35:22.102Z,3.88
2022-09-24T01:38:06.251Z,3.70
2022-09-24T01:40:49.656Z,3.58
2022-09-24T01:43:33.115Z,3.50
2022-09-24T01:46:19.481Z,3.60
2022-09-24T01:49:02.268Z,4.00
2022-09-24T01:51:48.777Z,3.53
2022-09-24T01:54:34.552Z,3.83
2022-09-24T01:57:19.494Z,3.92
2022-09-24T02:00:03.957Z,3.47
2022-09-24T02:02:59.983Z,3.53
2022-09-24T02:05:44.255Z,4.30
2022-09-24T02:08:31.395Z,4.03
2022-09-24T02:11:16.033Z,3.45
2022-09-24T02:14:01.514Z,3.67
2022-09-24T02:16:46.101Z,3.40
2022-09-24T02:19:30.993Z,3.38
2022-09-24T02:22:14.928Z,3.47
2022-09-24T02:24:59.105Z,3.22
2022-09-24T02:27:42.442Z,4.05
2022-09-24T02:30:25.190Z,3.90
2022-09-24T02:33:29.884Z,3.88
2022-09-24T02:36:13.092Z,4.03
2022-09-24T02:38:56.037Z,3.70
2022-09-24T02:41:38.919Z,4.15
2022-09-24T02:44:22.485Z,3.92
2022-09-24T02:47:06.635Z,3.80
2022-09-24T02:49:49.425Z,4.00
2022-09-24T02:52:33.523Z,4.18
2022-09-24T02:55:16.345Z,4.15
2022-09-24T02:57:59.099Z,4.20
2022-09-24T03:00:41.800Z,4.18
2022-09-24T03:03:24.841Z,3.65
2022-09-24T03:06:11.196Z,3.80
2022-09-24T03:08:55.788Z,4.18
2022-09-24T03:11:38.496Z,4.00
2022-09-24T03:14:21.227Z,4.05
2022-09-24T03:17:04.150Z,3.65
2022-09-24T03:19:46.937Z,3.70
2022-09-24T03:22:29.591Z,3.60
2022-09-24T03:25:13.777Z,3.90
2022-09-24T03:27:56.514Z,3.90
2022-09-24T03:30:56.733Z,3.83
2022-09-24T03:33:41.813Z,3.70
2022-09-24T03:36:25.851Z,3.80
2022-09-24T03:39:08.704Z,3.60
2022-09-24T03:41:52.790Z,4.03
2022-09-24T03:44:35.500Z,4.20
2022-09-24T03:47:18.221Z,3.70
2022-09-24T03:50:01.156Z,3.80
2022-09-24T03:52:43.825Z,3.50
2022-09-24T03:55:26.534Z,3.80
2022-09-24T03:58:10.578Z,3.85
2022-09-24T04:00:54.110Z,3.80
2022-09-24T04:03:52.263Z,3.53
2022-09-24T04:06:35.318Z,3.53
2022-09-24T04:09:18.085Z,4.00
2022-09-24T04:12:02.287Z,4.00
2022-09-24T04:14:46.409Z,3.78
2022-09-24T04:17:31.291Z,3.75
2022-09-24T04:20:14.064Z,3.90
2022-09-24T04:22:57.809Z,3.72
2022-09-24T04:25:41.430Z,3.80
2022-09-24T04:28:24.452Z,3.88
2022-09-24T04:31:11.041Z,4.20
2022-09-24T04:33:54.015Z,3.90
2022-09-24T04:36:36.762Z,4.10
2022-09-24T04:39:22.554Z,4.75
2022-09-24T04:42:05.366Z,4.03
2022-09-24T04:44:50.784Z,3.90
2022-09-24T04:47:36.871Z,4.10
2022-09-24T04:50:19.683Z,3.78
2022-09-24T04:53:02.652Z,4.28
2022-09-24T04:55:45.387Z,4.68
2022-09-24T04:58:28.407Z,4.40
2022-09-24T05:01:13.397Z,4.28
2022-09-24T05:03:57.683Z,4.25
2022-09-24T05:06:40.626Z,3.97
2022-09-24T05:09:23.386Z,4.10
2022-09-24T05:12:06.828Z,4.30
2022-09-24T05:14:50.664Z,4.60
2022-09-24T05:17:35.527Z,4.25
2022-09-24T05:20:20.324Z,3.55
2022-09-24T05:23:03.051Z,3.72
2022-09-24T05:26:03.384Z,3.90
2022-09-24T05:28:46.192Z,3.90
2022-09-24T05:31:28.905Z,3.85
2022-09-24T05:34:11.883Z,4.15
2022-09-24T05:36:56.039Z,4.30
2022-09-24T05:39:38.765Z,4.15
2022-09-24T05:42:22.718Z,3.90
2022-09-24T05:45:06.466Z,4.30
2022-09-24T05:47:50.543Z,4.38
2022-09-24T05:50:34.938Z,4.35
2022-09-24T05:53:19.218Z,4.40
2022-09-24T05:56:02.469Z,4.43
2022-09-24T05:58:45.126Z,4.47
2022-09-24T06:01:30.040Z,4.57
2022-09-24T06:04:13.170Z,4.30
2022-09-24T06:06:56.377Z,4.75
2022-09-24T06:09:40.810Z,5.13
2022-09-24T06:12:23.644Z,5.18
2022-09-24T06:15:06.791Z,4.93
2022-09-24T06:17:49.586Z,4.95
2022-09-24T06:20:33.260Z,5.22
2022-09-24T06:23:16.283Z,5.63
2022-09-24T06:26:01.319Z,5.20
2022-09-24T06:28:44.456Z,5.00
2022-09-24T06:31:27.226Z,4.93
2022-09-24T06:34:10.237Z,4.80
2022-09-24T06:36:54.716Z,5.10
2022-09-24T06:39:37.528Z,4.95
2022-09-24T06:42:22.716Z,4.75
2022-09-24T06:45:07.930Z,4.40
2022-09-24T06:47:53.869Z,4.97
2022-09-24T06:50:36.755Z,4.60
2022-09-24T06:53:19.561Z,5.10
2022-09-24T06:56:03.679Z,4.65
2022-09-24T06:58:47.849Z,4.88
2022-09-24T07:01:30.623Z,4.90
2022-09-24T07:04:13.401Z,4.82
2022-09-24T07:07:13.701Z,4.82
2022-09-24T07:09:56.442Z,4.85
2022-09-24T07:12:39.167Z,4.78
2022-09-24T07:15:23.256Z,5.47
2022-09-24T07:18:06.106Z,5.55
2022-09-24T07:20:52.409Z,5.45
2022-09-24T07:23:35.032Z,5.53
2022-09-24T07:26:17.661Z,5.20
2022-09-24T07:29:00.549Z,6.40
2022-09-24T07:31:44.587Z,5.35
2022-09-24T07:34:27.403Z,5.43
2022-09-24T07:37:10.152Z,5.43
2022-09-24T07:39:52.923Z,5.45
2022-09-24T07:42:35.684Z,5.68
2022-09-24T07:45:18.472Z,5.43
2022-09-24T07:48:03.537Z,5.35
2022-09-24T07:50:46.361Z,5.72
2022-09-24T07:53:29.161Z,5.13
2022-09-24T07:56:12.110Z,5.75
2022-09-24T07:58:55.209Z,5.70
2022-09-24T08:01:38.249Z,5.32
2022-09-24T08:04:23.437Z,5.28
2022-09-24T08:07:06.123Z,5.53
2022-09-24T08:09:48.866Z,5.50
2022-09-24T08:12:31.845Z,5.47
2022-09-24T08:15:15.712Z,5.25
2022-09-24T08:18:01.946Z,5.43
2022-09-24T08:20:46.025Z,5.35
2022-09-24T08:23:28.695Z,5.30
2022-09-24T08:26:11.686Z,5.80
2022-09-24T08:28:54.399Z,5.97
2022-09-24T08:31:37.202Z,5.72
2022-09-24T08:34:20.011Z,6.20
2022-09-24T08:37:04.189Z,5.88
2022-09-24T08:39:46.986Z,5.32
2022-09-24T08:42:35.718Z,5.93
2022-09-24T08:45:36.794Z,5.07
2022-09-24T08:48:21.974Z,5.50
2022-09-24T08:51:09.509Z,5.20
2022-09-24T08:53:55.991Z,5.70
2022-09-24T08:56:39.914Z,5.82
2022-09-24T08:59:26.252Z,5.00
2022-09-24T09:02:20.701Z,6.65
2022-09-24T09:05:09.152Z,4.88
2022-09-24T09:07:56.313Z,5.65
2022-09-24T09:10:42.302Z,5.07
2022-09-24T09:13:27.430Z,5.40
2022-09-24T09:16:19.282Z,5.68
2022-09-24T09:19:06.168Z,5.85
2022-09-24T09:21:52.711Z,5.70
2022-09-24T09:24:39.040Z,5.60
2022-09-24T09:27:23.217Z,5.22
2022-09-24T09:30:13.347Z,5.72
2022-09-24T09:33:12.623Z,5.05
2022-09-24T09:35:58.858Z,5.05
2022-09-24T09:38:46.403Z,5.55
2022-09-24T09:41:33.112Z,5.50
2022-09-24T09:44:20.409Z,5.85
2022-09-24T09:47:06.902Z,5.53
2022-09-24T09:49:51.829Z,5.72
2022-09-24T09:52:37.439Z,5.88
2022-09-24T09:55:24.623Z,5.85
2022-09-24T09:58:20.032Z,6.55
2022-09-24T10:01:12.764Z,5.85
2022-09-24T10:03:57.657Z,5.72
2022-09-24T10:06:40.721Z,6.28
2022-09-24T10:09:23.514Z,6.53
2022-09-24T10:12:10.294Z,6.45
2022-09-24T10:14:58.234Z,6.35
2022-09-24T10:17:43.097Z,6.88
2022-09-24T10:20:28.319Z,6.18
2022-09-24T10:23:16.515Z,6.65
2022-09-24T10:26:00.729Z,6.47
2022-09-24T10:29:10.483Z,6.20
2022-09-24T10:31:53.340Z,6.10
2022-09-24T10:34:37.627Z,6.70
2022-09-24T10:37:20.343Z,6.40
2022-09-24T10:40:05.054Z,6.35
2022-09-24T10:42:55.874Z,7.15
2022-09-24T10:45:48.718Z,6.22
2022-09-24T10:48:36.146Z,6.75
2022-09-24T10:51:29.649Z,7.47
2022-09-24T10:54:22.813Z,7.88
2022-09-24T10:57:13.368Z,7.97
2022-09-24T11:00:02.216Z,8.45
2022-09-24T11:03:02.800Z,8.70
2022-09-24T11:05:46.734Z,7.68
2022-09-24T11:08:37.899Z,8.40
2022-09-24T11:11:25.837Z,8.52
2022-09-24T11:14:17.821Z,7.85
2022-09-24T11:17:21.642Z,8.80
2022-09-24T11:20:13.801Z,8.75
2022-09-24T11:23:07.596Z,8.95
2022-09-24T11:25:56.798Z,8.93
2022-09-24T11:28:57.425Z,8.77
2022-09-24T11:31:42.458Z,8.90
2022-09-24T11:34:37.867Z,8.85
2022-09-24T11:37:26.577Z,8.65
2022-09-24T11:40:20.767Z,8.32
2022-09-24T11:43:15.605Z,8.80
2022-09-24T11:46:01.297Z,8.45
2022-09-24T11:49:09.350Z,8.48
2022-09-24T11:51:56.447Z,9.63
2022-09-24T11:54:41.302Z,9.48
2022-09-24T11:57:26.467Z,8.27
2022-09-24T12:00:14.491Z,8.52
2022-09-24T12:03:00.487Z,9.68
2022-09-24T12:05:45.571Z,9.80
2022-09-24T12:08:30.682Z,9.77
2022-09-24T12:11:15.578Z,8.90
2022-09-24T12:14:02.723Z,9.55
2022-09-24T12:16:47.767Z,9.25
2022-09-24T12:19:33.353Z,10.07
2022-09-24T12:22:18.078Z,9.85
2022-09-24T12:25:01.530Z,9.57
2022-09-24T12:27:45.041Z,9.90
2022-09-24T12:30:49.584Z,9.18
2022-09-24T12:33:36.408Z,9.63
2022-09-24T12:36:20.900Z,10.77
2022-09-24T12:39:05.165Z,9.70
2022-09-24T12:41:48.709Z,9.90
2022-09-24T12:44:35.575Z,9.73
2022-09-24T12:47:20.408Z,10.23
2022-09-24T12:50:08.468Z,9.52
2022-09-24T12:52:51.684Z,9.80
2022-09-24T12:55:36.027Z,10.05
2022-09-24T12:58:28.226Z,9.40
2022-09-24T13:01:15.580Z,9.50
2022-09-24T13:04:19.935Z,9.35
2022-09-24T13:07:04.628Z,9.43
2022-09-24T13:09:47.385Z,9.25
2022-09-24T13:12:33.746Z,10.18
2022-09-24T13:15:28.084Z,10.15
2022-09-24T13:18:21.538Z,9.23
2022-09-24T13:21:07.938Z,10.00
2022-09-24T13:23:55.160Z,9.45
2022-09-24T13:26:37.977Z,9.23
2022-09-24T13:29:24.501Z,8.93
2022-09-24T13:32:07.308Z,9.45
2022-09-24T13:34:51.365Z,9.07
2022-09-24T13:37:35.896Z,9.13
2022-09-24T13:40:22.790Z,9.43
2022-09-24T13:43:06.477Z,9.10
2022-09-24T13:45:49.416Z,9.75
2022-09-24T13:48:37.317Z,10.05
2022-09-24T13:51:22.949Z,9.75
2022-09-24T13:54:08.612Z,9.27
2022-09-24T13:57:00.917Z,9.38
2022-09-24T13:59:43.968Z,9.25
2022-09-24T14:02:29.990Z,8.43
2022-09-24T14:05:17.243Z,9.00
2022-09-24T14:08:04.635Z,8.55
2022-09-24T14:10:51.156Z,8.77
2022-09-24T14:13:38.485Z,8.05
2022-09-24T14:16:22.303Z,8.52
2022-09-24T14:19:05.923Z,9.05
2022-09-24T14:21:51.283Z,8.43
2022-09-24T14:24:35.684Z,8.57
2022-09-24T14:27:20.579Z,9.02
2022-09-24T14:30:05.688Z,8.73
2022-09-24T14:32:52.023Z,9.10
2022-09-24T14:35:35.835Z,8.60
2022-09-24T14:38:20.334Z,8.65
2022-09-24T14:41:04.005Z,8.48
2022-09-24T14:43:48.819Z,8.77
2022-09-24T14:46:34.399Z,8.80
2022-09-24T14:49:19.769Z,8.43
2022-09-24T14:52:03.765Z,8.02
2022-09-24T14:54:46.896Z,9.00
2022-09-24T14:57:36.784Z,8.48
2022-09-24T15:00:20.871Z,8.65
2022-09-24T15:03:07.336Z,8.68
2022-09-24T15:05:50.229Z,7.50
2022-09-24T15:08:32.998Z,8.30
2022-09-24T15:11:17.158Z,8.57
2022-09-24T15:14:01.158Z,8.07
2022-09-24T15:16:44.212Z,8.32
2022-09-24T15:19:30.748Z,8.23
2022-09-24T15:22:13.811Z,7.60
2022-09-24T15:25:01.218Z,8.32
2022-09-24T15:27:46.091Z,7.60
2022-09-24T15:30:29.018Z,8.10
2022-09-24T15:33:12.395Z,8.75
2022-09-24T15:35:56.803Z,8.68
2022-09-24T15:38:39.587Z,8.55
2022-09-24T15:41:22.480Z,9.35
2022-09-24T15:44:06.992Z,9.38
2022-09-24T15:46:51.160Z,8.60
2022-09-24T15:49:34.086Z,8.30
2022-09-24T15:52:24.467Z,8.52
2022-09-24T15:55:13.802Z,8.60
2022-09-24T15:57:56.569Z,8.75
2022-09-24T16:00:39.381Z,9.25
2022-09-24T16:03:23.843Z,9.38
2022-09-24T16:06:09.321Z,8.85
2022-09-24T16:08:53.484Z,9.48
2022-09-24T16:11:36.491Z,8.98
2022-09-24T16:14:22.174Z,8.88
2022-09-24T16:17:05.233Z,9.35
2022-09-24T16:19:48.161Z,9.65
2022-09-24T16:22:31.042Z,8.95
2022-09-24T16:25:15.225Z,9.48
2022-09-24T16:27:58.621Z,8.98
2022-09-24T16:30:44.030Z,9.32
2022-09-24T16:33:28.137Z,8.82
2022-09-24T16:36:11.768Z,9.80
2022-09-24T16:38:54.836Z,9.43
2022-09-24T16:41:39.149Z,8.95
2022-09-24T16:44:22.341Z,9.32
2022-09-24T16:47:05.172Z,9.60
2022-09-24T16:49:47.887Z,9.82
2022-09-24T16:52:31.581Z,10.07
2022-09-24T16:55:14.487Z,9.88
2022-09-24T16:57:58.590Z,9.73
2022-09-24T17:00:42.328Z,9.48
2022-09-24T17:03:25.017Z,9.23
2022-09-24T17:06:10.738Z,9.85
2022-09-24T17:09:10.940Z,9.70
2022-09-24T17:11:53.762Z,10.07
2022-09-24T17:14:38.878Z,10.35
2022-09-24T17:17:22.716Z,10.60
2022-09-24T17:20:05.821Z,10.70
2022-09-24T17:22:49.994Z,11.05
2022-09-24T17:25:32.760Z,10.23
2022-09-24T17:28:15.428Z,11.65
2022-09-24T17:30:59.876Z,10.00
2022-09-24T17:33:45.089Z,9.88
2022-09-24T17:36:28.459Z,8.98
2022-09-24T17:39:12.689Z,9.70
2022-09-24T17:41:56.925Z,9.75
2022-09-24T17:44:39.842Z,10.00
2022-09-24T17:47:44.582Z,9.95
2022-09-24T17:50:28.631Z,9.52
2022-09-24T17:53:15.700Z,9.75
2022-09-24T17:55:59.064Z,10.98
2022-09-24T17:58:42.910Z,10.80
2022-09-24T18:01:27.900Z,9.00
2022-09-24T18:04:13.161Z,10.95
2022-09-24T18:06:55.859Z,11.30
2022-09-24T18:09:40.224Z,10.95
2022-09-24T18:12:23.247Z,11.20
2022-09-24T18:15:06.370Z,11.63
2022-09-24T18:17:49.398Z,11.30
2022-09-24T18:20:33.965Z,11.50
2022-09-24T18:23:18.317Z,12.02
2022-09-24T18:26:12.825Z,11.45
2022-09-24T18:28:56.830Z,11.40
2022-09-24T18:31:40.111Z,11.77
2022-09-24T18:34:23.179Z,12.13
2022-09-24T18:37:07.840Z,12.02
2022-09-24T18:39:53.252Z,11.25
2022-09-24T18:42:36.548Z,12.25
2022-09-24T18:45:19.428Z,11.57
2022-09-24T18:48:03.413Z,12.00
2022-09-24T18:50:46.172Z,11.10
2022-09-24T18:53:33.548Z,10.95
2022-09-24T18:56:17.239Z,11.93
2022-09-24T18:59:03.663Z,11.43
2022-09-24T19:01:49.329Z,11.45
2022-09-24T19:04:34.786Z,12.05
2022-09-24T19:07:17.669Z,12.35
2022-09-24T19:10:01.962Z,12.35
2022-09-24T19:12:45.870Z,12.80
2022-09-24T19:15:28.794Z,11.38
2022-09-24T19:18:13.375Z,12.23
2022-09-24T19:20:57.491Z,12.25
2022-09-24T19:23:40.620Z,11.75
2022-09-24T19:26:26.113Z,11.98
2022-09-24T19:29:09.103Z,11.82
2022-09-24T19:31:51.952Z,12.68
2022-09-24T19:34:35.159Z,12.77
2022-09-24T19:37:18.366Z,13.23
2022-09-24T19:40:01.334Z,13.07
2022-09-24T19:42:45.445Z,13.80
2022-09-24T19:45:28.681Z,12.38
2022-09-24T19:48:11.630Z,12.32
2022-09-24T19:50:55.067Z,12.40
2022-09-24T19:53:37.966Z,12.07
2022-09-24T19:56:22.621Z,12.40
2022-09-24T19:59:08.021Z,12.38
2022-09-24T20:01:51.463Z,12.23
2022-09-24T20:04:35.535Z,12.70
2022-09-24T20:07:18.882Z,12.70
2022-09-24T20:10:02.568Z,13.13
2022-09-24T20:12:49.020Z,13.02
2022-09-24T20:15:33.241Z,12.32
2022-09-24T20:18:16.145Z,11.93
2022-09-24T20:21:03.035Z,11.65
2022-09-24T20:23:46.715Z,12.00
2022-09-24T20:26:47.244Z,13.13
2022-09-24T20:29:30.043Z,12.32
2022-09-24T20:32:18.829Z,12.43
2022-09-24T20:35:02.183Z,12.48
2022-09-24T20:37:45.711Z,11.70
2022-09-24T20:40:29.499Z,11.35
2022-09-24T20:43:12.475Z,11.43
2022-09-24T20:45:55.803Z,10.93
2022-09-24T20:48:40.130Z,10.45
2022-09-24T20:51:23.138Z,11.05
2022-09-24T20:54:06.438Z,10.35
2022-09-24T20:56:49.589Z,11.02
2022-09-24T20:59:32.413Z,10.98
2022-09-24T21:02:16.342Z,11.50
2022-09-24T21:05:00.807Z,10.63
2022-09-24T21:07:43.834Z,11.02
2022-09-24T21:10:26.862Z,10.73
2022-09-24T21:13:11.201Z,10.88
2022-09-24T21:16:03.249Z,11.90
2022-09-24T21:18:47.413Z,10.95
2022-09-24T21:21:33.176Z,12.25
2022-09-24T21:24:16.729Z,11.40
2022-09-24T21:27:00.352Z,11.45
2022-09-24T21:29:43.471Z,10.27
2022-09-24T21:32:26.384Z,10.48
2022-09-24T21:35:09.406Z,9.73
2022-09-24T21:37:53.967Z,9.02
2022-09-24T21:40:37.190Z,8.70
2022-09-24T21:43:28.596Z,8.90
2022-09-24T21:46:14.141Z,8.18
2022-09-24T21:48:57.035Z,8.90
2022-09-24T21:51:41.169Z,8.77
2022-09-24T21:54:25.278Z,8.88
2022-09-24T21:57:08.172Z,9.40
2022-09-24T22:00:10.117Z,8.82
2022-09-24T22:02:52.870Z,8.40
2022-09-24T22:05:39.347Z,9.27
2022-09-24T22:08:27.221Z,9.98
2022-09-24T22:11:14.990Z,9.80
2022-09-24T22:14:01.263Z,8.80
2022-09-24T22:16:44.253Z,9.43
2022-09-24T22:19:26.941Z,9.30
2022-09-24T22:22:09.695Z,8.73
2022-09-24T22:24:52.722Z,8.50
2022-09-24T22:27:36.848Z,8.50
2022-09-24T22:30:20.450Z,8.63
2022-09-24T22:33:03.180Z,8.75
2022-09-24T22:35:49.104Z,8.15
2022-09-24T22:38:32.141Z,8.80
2022-09-24T22:41:14.865Z,8.98
2022-09-24T22:43:59.475Z,8.90
2022-09-24T22:46:42.350Z,8.63
2022-09-24T22:49:25.766Z,8.68
2022-09-24T22:52:08.442Z,8.10
2022-09-24T22:54:51.170Z,8.50
2022-09-24T22:57:34.502Z,9.32
2022-09-24T23:00:18.960Z,8.30
2022-09-24T23:03:01.672Z,8.80
2022-09-24T23:05:45.283Z,7.35
2022-09-24T23:08:28.529Z,8.38
2022-09-24T23:11:12.271Z,8.50
2022-09-24T23:13:55.611Z,8.10
2022-09-24T23:16:39.911Z,7.10
2022-09-24T23:19:22.871Z,7.78
2022-09-24T23:22:05.587Z,7.57
2022-09-24T23:24:50.500Z,8.27
2022-09-24T23:27:33.370Z,8.10
2022-09-24T23:30:16.386Z,8.50
2022-09-24T23:33:00.949Z,8.40
2022-09-24T23:35:43.766Z,9.00
2022-09-24T23:38:26.884Z,9.57
2022-09-24T23:41:13.503Z,9.88
2022-09-24T23:43:56.782Z,8.93
2022-09-24T23:46:40.098Z,9.45
2022-09-24T23:49:25.558Z,10.50
2022-09-24T23:52:08.759Z,10.15
2022-09-24T23:54:51.578Z,11.02
2022-09-24T23:57:34.392Z,10.07
